Time;durP1;ratioP1;P1;durP2;ratioP2;P2;SDS_P1;SDS_P2;PMS_P1;PMS_P2;Temp;Humidity;BMP_temperature;BMP_pressure;BME280_temperature;BME280_humidity;BME280_pressure;Samples;Min_cycle;Max_cycle;Signal;HPM_P1;HPM_P2
2021/04/13 00:02:39;;;;;;;17.02;12.18;;;10.90;76.60;;;;;;6312959;22;20429;-89
2021/04/13 00:05:14;;;;;;;17.60;12.27;;;10.80;76.80;;;;;;6340966;22;20026;-89
2021/04/13 00:07:44;;;;;;;18.25;12.05;;;10.80;76.70;;;;;;6328762;22;19989;-89
2021/04/13 00:10:20;;;;;;;18.27;13.27;;;10.80;76.70;;;;;;6336468;22;20009;-88
2021/04/13 00:12:48;;;;;;;18.00;12.95;;;10.80;76.90;;;;;;6337051;22;19998;-88
2021/04/13 00:15:32;;;;;;;16.08;12.77;;;10.80;77.00;;;;;;6362415;22;20003;-87
2021/04/13 00:18:00;;;;;;;16.13;11.75;;;10.80;77.00;;;;;;6321872;22;20003;-89
2021/04/13 00:20:41;;;;;;;15.95;11.50;;;10.70;77.10;;;;;;6313532;22;20003;-89
2021/04/13 00:23:08;;;;;;;14.73;11.05;;;10.70;77.30;;;;;;6340416;22;20011;-89
2021/04/13 00:25:44;;;;;;;16.80;12.23;;;10.70;77.10;;;;;;6312740;22;20002;-88
2021/04/13 00:28:10;;;;;;;15.07;11.75;;;10.70;77.30;;;;;;6312789;22;20082;-88
2021/04/13 00:31:00;;;;;;;17.42;13.18;;;10.70;77.40;;;;;;6312278;22;19995;-89
2021/04/13 00:33:31;;;;;;;16.70;11.82;;;10.60;77.80;;;;;;6312280;22;20003;-89
2021/04/13 00:36:09;;;;;;;17.88;12.20;;;10.60;77.50;;;;;;6312704;22;20003;-89
2021/04/13 00:38:37;;;;;;;17.98;12.45;;;10.60;77.60;;;;;;6312970;22;20007;-89
2021/04/13 00:41:17;;;;;;;16.88;12.70;;;10.60;77.60;;;;;;6312725;22;20444;-89
2021/04/13 00:43:48;;;;;;;19.08;13.93;;;10.60;77.70;;;;;;6312438;22;19999;-88
2021/04/13 00:46:24;;;;;;;20.65;14.93;;;10.60;77.80;;;;;;6312584;22;20093;-89
2021/04/13 00:48:51;;;;;;;21.50;14.80;;;10.50;78.00;;;;;;6312864;22;20361;-89
2021/04/13 00:51:35;;;;;;;20.75;15.68;;;10.60;78.10;;;;;;6340144;22;20006;-89
2021/04/13 00:54:08;;;;;;;18.98;13.63;;;10.50;78.00;;;;;;6312990;22;20010;-89
2021/04/13 00:56:34;;;;;;;21.63;15.10;;;10.50;78.10;;;;;;6314778;22;19999;-89
2021/04/13 00:59:18;;;;;;;22.98;15.27;;;10.50;78.20;;;;;;6321810;22;20003;-89
2021/04/13 01:01:53;;;;;;;19.20;14.75;;;10.50;78.60;;;;;;6321353;22;19999;-89
2021/04/13 01:04:30;;;;;;;20.95;15.25;;;10.50;78.30;;;;;;6316720;22;20067;-89
2021/04/13 01:07:23;;;;;;;19.08;13.98;;;10.50;78.40;;;;;;6312461;22;19999;-89
2021/04/13 01:09:57;;;;;;;17.45;13.13;;;10.40;78.40;;;;;;6311095;22;20426;-89
2021/04/13 01:12:27;;;;;;;22.17;15.15;;;10.40;78.40;;;;;;6312463;22;20007;-89
2021/04/13 01:14:53;;;;;;;19.42;14.65;;;10.40;78.50;;;;;;6312115;22;20003;-89
2021/04/13 01:17:21;;;;;;;18.73;14.30;;;10.40;78.50;;;;;;6312552;22;20445;-88
2021/04/13 01:19:53;;;;;;;21.05;14.52;;;10.40;78.60;;;;;;6312168;22;20000;-89
2021/04/13 01:22:51;;;;;;;20.73;15.07;;;10.40;78.70;;;;;;6339738;22;20466;-89
2021/04/13 01:25:21;;;;;;;22.25;14.68;;;10.40;78.80;;;;;;6339629;22;20022;-88
2021/04/13 01:27:57;;;;;;;21.13;14.93;;;10.40;78.90;;;;;;6312251;22;19999;-89
2021/04/13 01:30:46;;;;;;;22.48;15.73;;;10.40;79.00;;;;;;6312303;22;20006;-89
2021/04/13 01:33:43;;;;;;;24.88;15.20;;;10.40;79.00;;;;;;6340006;22;20341;-89
2021/04/13 01:36:28;;;;;;;19.13;14.27;;;10.30;79.10;;;;;;6340169;22;20123;-88
2021/04/13 01:39:09;;;;;;;20.75;16.30;;;10.30;79.20;;;;;;6340117;22;20003;-89
2021/04/13 01:42:03;;;;;;;22.50;15.15;;;10.30;79.10;;;;;;6340079;22;20018;-89
2021/04/13 01:44:46;;;;;;;21.60;15.07;;;10.30;79.20;;;;;;6321892;22;20094;-88
2021/04/13 01:47:15;;;;;;;22.45;15.10;;;10.30;79.30;;;;;;6324411;22;19995;-89
2021/04/13 01:49:50;;;;;;;19.85;15.30;;;10.30;79.20;;;;;;6329864;22;19995;-89
2021/04/13 01:52:32;;;;;;;23.02;14.63;;;10.30;79.20;;;;;;6333278;22;20003;-88
2021/04/13 01:54:59;;;;;;;21.08;15.07;;;10.30;79.30;;;;;;6320647;22;20029;-88
2021/04/13 01:58:06;;;;;;;21.63;15.50;;;10.30;79.40;;;;;;6340083;22;20315;-89
2021/04/13 02:00:50;;;;;;;20.75;14.32;;;10.30;79.60;;;;;;6318649;22;19995;-88
2021/04/13 02:03:23;;;;;;;23.83;15.50;;;10.30;79.40;;;;;;6311783;22;20079;-89
2021/04/13 02:05:55;;;;;;;17.20;13.02;;;10.30;79.50;;;;;;6312482;22;20418;-89
2021/04/13 02:08:30;;;;;;;22.90;15.65;;;10.20;79.60;;;;;;6311987;22;20005;-88
2021/04/13 02:11:22;;;;;;;22.08;15.85;;;10.20;79.70;;;;;;6339378;22;19999;-88
2021/04/13 02:13:58;;;;;;;20.50;15.15;;;10.30;80.00;;;;;;6331420;22;19998;-88
2021/04/13 02:17:15;;;;;;;20.58;14.77;;;10.20;79.90;;;;;;6312148;22;20007;-89
2021/04/13 02:19:48;;;;;;;21.85;14.13;;;10.20;80.10;;;;;;6184064;23;20044;-88
2021/04/13 02:22:16;;;;;;;23.63;14.85;;;10.20;79.90;;;;;;6182968;23;20017;-89
2021/04/13 02:24:43;;;;;;;21.30;16.13;;;10.20;79.90;;;;;;6265178;22;20432;-89
2021/04/13 02:27:15;;;;;;;20.95;14.65;;;10.20;80.10;;;;;;6311772;22;20020;-89
2021/04/13 02:29:53;;;;;;;24.48;16.08;;;10.20;80.10;;;;;;6311757;22;20082;-88
2021/04/13 02:32:27;;;;;;;25.40;17.70;;;10.20;80.20;;;;;;6311784;22;19999;-89
2021/04/13 02:34:59;;;;;;;19.38;15.05;;;10.20;80.30;;;;;;6339621;22;20045;-88
2021/04/13 02:37:27;;;;;;;22.65;15.57;;;10.20;80.30;;;;;;6312239;22;19999;-89
2021/04/13 02:39:56;;;;;;;24.17;16.17;;;10.20;80.40;;;;;;6339554;22;20341;-89
2021/04/13 02:42:26;;;;;;;22.13;14.95;;;10.20;80.50;;;;;;6311683;22;20010;-89
2021/04/13 02:45:10;;;;;;;20.58;15.82;;;10.20;80.50;;;;;;6311492;22;20010;-88
2021/04/13 02:48:00;;;;;;;22.63;16.33;;;10.20;80.60;;;;;;6313257;22;20006;-89
2021/04/13 02:50:26;;;;;;;17.15;13.30;;;10.20;80.90;;;;;;6341289;22;20006;-89
2021/04/13 02:52:54;;;;;;;19.17;15.02;;;10.20;80.50;;;;;;6314506;22;20318;-88
2021/04/13 02:55:28;;;;;;;19.02;14.35;;;10.20;80.50;;;;;;6314172;22;20078;-88
2021/04/13 02:57:55;;;;;;;20.48;15.25;;;10.20;80.70;;;;;;6314063;22;19995;-88
2021/04/13 03:00:30;;;;;;;20.00;13.52;;;10.20;80.60;;;;;;6313590;22;20026;-89
2021/04/13 03:03:01;;;;;;;19.83;14.57;;;10.20;80.70;;;;;;6341017;22;20006;-87
2021/04/13 03:05:29;;;;;;;23.40;15.52;;;10.20;80.90;;;;;;6313553;22;20445;-87
2021/04/13 03:08:04;;;;;;;27.80;17.27;;;10.20;81.10;;;;;;6313495;22;20007;-87
2021/04/13 03:10:42;;;;;;;22.45;15.57;;;10.20;81.20;;;;;;6313537;22;20031;-87
2021/04/13 03:13:14;;;;;;;24.35;16.25;;;10.20;81.10;;;;;;6313622;22;20322;-87
2021/04/13 03:15:42;;;;;;;20.45;15.68;;;10.30;81.20;;;;;;6313791;22;20005;-87
2021/04/13 03:18:15;;;;;;;26.30;18.13;;;10.30;81.30;;;;;;6313398;22;20003;-87
2021/04/13 03:20:48;;;;;;;25.33;18.88;;;10.30;81.60;;;;;;6321609;22;19995;-86
2021/04/13 03:23:16;;;;;;;24.70;18.13;;;10.30;81.50;;;;;;6335392;22;20050;-86
2021/04/13 03:25:58;;;;;;;28.80;19.52;;;10.30;81.50;;;;;;6337033;22;20058;-86
2021/04/13 03:28:32;;;;;;;26.42;18.33;;;10.30;81.50;;;;;;6338141;22;20024;-87
2021/04/13 03:30:59;;;;;;;28.70;17.17;;;10.30;82.00;;;;;;6330773;22;20082;-88
2021/04/13 03:33:31;;;;;;;27.70;17.70;;;10.40;81.70;;;;;;6313309;22;20003;-88
2021/04/13 03:36:22;;;;;;;31.60;18.15;;;10.40;81.70;;;;;;6313242;22;20006;-88
2021/04/13 03:38:52;;;;;;;36.58;19.10;;;10.40;81.80;;;;;;6313478;22;20517;-87
2021/04/13 03:41:20;;;;;;;21.30;16.67;;;10.40;81.80;;;;;;6313353;22;19999;-88
2021/04/13 03:43:56;;;;;;;22.35;16.45;;;10.40;81.80;;;;;;6340686;22;20418;-87
2021/04/13 03:46:24;;;;;;;24.50;17.17;;;10.40;81.90;;;;;;6340919;22;19995;-88
2021/04/13 03:48:50;;;;;;;24.25;17.20;;;10.40;82.00;;;;;;6340868;22;20418;-87
2021/04/13 03:51:25;;;;;;;24.25;16.55;;;10.50;82.10;;;;;;6313345;22;19999;-88
2021/04/13 03:53:51;;;;;;;20.88;14.82;;;10.40;82.20;;;;;;6313431;22;20006;-88
2021/04/13 03:56:20;;;;;;;25.05;17.27;;;10.40;82.20;;;;;;6341225;22;20007;-88
2021/04/13 03:58:52;;;;;;;23.25;16.85;;;10.50;82.30;;;;;;6312581;22;19998;-88
2021/04/13 04:01:22;;;;;;;20.77;14.90;;;10.50;82.50;;;;;;6313048;22;19999;-87
2021/04/13 04:03:52;;;;;;;25.08;16.58;;;10.40;82.40;;;;;;6340635;22;20026;-87
2021/04/13 04:06:38;;;;;;;21.95;16.65;;;10.50;82.70;;;;;;6313292;22;20006;-88
2021/04/13 04:09:12;;;;;;;19.58;14.95;;;10.40;82.70;;;;;;6312930;22;20139;-88
2021/04/13 04:11:38;;;;;;;26.52;17.65;;;10.40;82.90;;;;;;6312972;22;20245;-88
2021/04/13 04:14:11;;;;;;;21.63;15.52;;;10.40;83.10;;;;;;6339063;22;20085;-88
2021/04/13 04:16:37;;;;;;;21.13;15.80;;;10.40;83.40;;;;;;6312470;22;19995;-87
2021/04/13 04:19:18;;;;;;;19.30;14.60;;;10.40;83.40;;;;;;6339958;22;20005;-88
2021/04/13 04:22:08;;;;;;;21.75;16.05;;;10.40;83.50;;;;;;6312803;22;19995;-88
2021/04/13 04:24:37;;;;;;;24.25;16.27;;;10.40;83.80;;;;;;6313274;22;20307;-88
2021/04/13 04:27:16;;;;;;;23.10;15.27;;;10.40;83.70;;;;;;6342493;22;19998;-88
2021/04/13 04:29:44;;;;;;;24.02;15.73;;;10.40;83.80;;;;;;6340020;22;20077;-87
2021/04/13 04:32:34;;;;;;;19.60;13.40;;;10.40;83.80;;;;;;6339687;22;20066;-88
2021/04/13 04:35:03;;;;;;;18.45;13.23;;;10.40;83.90;;;;;;6312672;22;20311;-88
2021/04/13 04:37:31;;;;;;;16.73;12.63;;;10.50;83.90;;;;;;6339821;22;20010;-88
2021/04/13 04:40:20;;;;;;;18.83;13.18;;;10.50;84.00;;;;;;6340082;22;20071;-87
2021/04/13 04:42:52;;;;;;;20.98;12.82;;;10.60;84.00;;;;;;6312434;22;20052;-88
2021/04/13 04:45:47;;;;;;;18.73;12.60;;;10.60;84.10;;;;;;6313041;22;20022;-87
2021/04/13 04:48:34;;;;;;;17.88;13.48;;;10.60;84.00;;;;;;6312695;22;20027;-88
2021/04/13 04:51:08;;;;;;;18.13;12.80;;;10.70;84.00;;;;;;6312826;22;20002;-88
2021/04/13 04:53:34;;;;;;;;;;;10.70;83.90;;;;;;6314360;22;20025;-88
2021/04/13 04:56:02;;;;;;;16.90;12.60;;;10.70;84.50;;;;;;6312944;22;19946;-88
2021/04/13 04:58:28;;;;;;;17.90;12.82;;;10.80;83.70;;;;;;6360342;22;20021;-86
2021/04/13 05:00:55;;;;;;;18.45;13.00;;;10.90;83.70;;;;;;6362951;22;20018;-87
2021/04/13 05:03:22;;;;;;;19.48;13.02;;;10.90;83.60;;;;;;6334383;22;20009;-87
2021/04/13 05:05:49;;;;;;;17.95;13.05;;;11.00;83.70;;;;;;6362405;22;20446;-87
2021/04/13 05:08:15;;;;;;;16.08;12.55;;;11.00;83.70;;;;;;6324520;22;20033;-88
2021/04/13 05:10:41;;;;;;;20.45;13.90;;;11.00;83.60;;;;;;6312513;22;20037;-88
2021/04/13 05:13:07;;;;;;;20.00;13.43;;;11.10;83.70;;;;;;6312160;22;20064;-88
2021/04/13 05:15:33;;;;;;;16.80;12.85;;;11.10;83.60;;;;;;6338164;22;20003;-88
2021/04/13 05:17:58;;;;;;;24.88;13.68;;;11.20;83.70;;;;;;6338214;22;20023;-88
2021/04/13 05:20:24;;;;;;;21.52;14.07;;;11.20;83.80;;;;;;6338333;22;20029;-88
2021/04/13 05:22:50;;;;;;;17.48;12.98;;;11.20;83.70;;;;;;6339634;22;20449;-88
2021/04/13 05:25:18;;;;;;;18.45;14.05;;;11.30;83.70;;;;;;6311907;22;20044;-88
2021/04/13 05:27:46;;;;;;;18.33;13.93;;;11.40;83.50;;;;;;6311749;22;19999;-88
2021/04/13 05:30:14;;;;;;;19.42;12.82;;;11.40;83.30;;;;;;6311247;22;20003;-88
2021/04/13 05:32:39;;;;;;;19.10;13.07;;;11.50;83.20;;;;;;6311724;22;20029;-88
2021/04/13 05:35:07;;;;;;;17.88;12.23;;;11.60;83.10;;;;;;6338154;22;20414;-88
2021/04/13 05:37:33;;;;;;;22.77;15.23;;;11.60;83.00;;;;;;6311762;22;20360;-88
2021/04/13 05:40:04;;;;;;;22.92;14.90;;;11.70;83.00;;;;;;6312411;22;20288;-88
2021/04/13 05:42:32;;;;;;;23.95;15.38;;;11.70;82.90;;;;;;6311904;22;20006;-89
2021/04/13 05:44:59;;;;;;;21.27;14.73;;;11.80;82.90;;;;;;6311905;22;20089;-88
2021/04/13 05:47:27;;;;;;;20.58;14.30;;;11.90;82.70;;;;;;6339750;22;20075;-88
2021/04/13 05:49:53;;;;;;;20.15;14.10;;;11.90;82.60;;;;;;6312463;22;20087;-88
2021/04/13 05:52:18;;;;;;;18.13;12.98;;;12.10;82.40;;;;;;6338414;22;20003;-88
2021/04/13 05:54:44;;;;;;;22.83;15.73;;;12.10;82.20;;;;;;6312348;22;20003;-89
2021/04/13 05:57:14;;;;;;;21.83;14.40;;;12.10;82.10;;;;;;6340567;22;20341;-88
2021/04/13 05:59:41;;;;;;;20.98;15.30;;;12.20;81.90;;;;;;6340193;22;19995;-88
2021/04/13 06:02:13;;;;;;;21.95;16.40;;;12.30;81.70;;;;;;6312111;22;20060;-88
2021/04/13 06:04:39;;;;;;;23.05;16.23;;;12.30;81.60;;;;;;6312543;22;20052;-89
2021/04/13 06:07:06;;;;;;;23.05;15.90;;;12.40;81.40;;;;;;6340162;22;20026;-89
2021/04/13 06:09:31;;;;;;;23.33;17.80;;;12.40;81.20;;;;;;6312469;22;20356;-88
2021/04/13 06:11:57;;;;;;;25.00;17.77;;;12.40;81.00;;;;;;6338975;22;20056;-88
2021/04/13 06:14:24;;;;;;;22.45;17.05;;;12.50;81.10;;;;;;6339879;22;19991;-88
2021/04/13 06:16:51;;;;;;;24.15;15.85;;;12.50;81.10;;;;;;6338382;22;20089;-88
2021/04/13 06:19:17;;;;;;;27.23;18.55;;;12.50;81.20;;;;;;6340303;22;20007;-88
2021/04/13 06:21:44;;;;;;;23.05;16.60;;;12.60;81.20;;;;;;6314299;22;20322;-88
2021/04/13 06:24:10;;;;;;;22.05;16.02;;;12.70;80.80;;;;;;6315319;22;20011;-88
2021/04/13 06:26:36;;;;;;;25.38;17.45;;;12.80;80.40;;;;;;6341703;22;20406;-88
2021/04/13 06:29:03;;;;;;;24.00;17.33;;;12.80;80.10;;;;;;6315185;22;20006;-88
2021/04/13 06:31:28;;;;;;;23.17;18.02;;;12.90;79.80;;;;;;6314424;22;20326;-88
2021/04/13 06:33:54;;;;;;;25.05;18.45;;;12.90;79.50;;;;;;6351647;22;19999;-87
2021/04/13 06:36:21;;;;;;;28.02;20.48;;;12.90;79.40;;;;;;6362783;22;20025;-88
2021/04/13 06:38:48;;;;;;;27.73;18.48;;;12.90;79.30;;;;;;6329606;22;20056;-88
2021/04/13 06:41:44;;;;;;;30.85;19.27;;;12.90;79.30;;;;;;6333888;22;20009;-87
2021/04/13 06:44:19;;;;;;;22.60;16.60;;;12.80;79.20;;;;;;6278841;22;20006;-88
2021/04/13 06:47:07;;;;;;;27.73;17.05;;;12.80;79.30;;;;;;6314487;22;20026;-88
2021/04/13 06:50:06;;;;;;;23.50;15.35;;;12.70;79.30;;;;;;6341003;22;20533;-87
2021/04/13 06:52:46;;;;;;;24.13;16.17;;;12.70;79.40;;;;;;6313738;22;20005;-87
2021/04/13 06:55:25;;;;;;;19.70;15.25;;;12.70;79.70;;;;;;6314636;22;20025;-88
2021/04/13 06:58:26;;;;;;;22.58;14.73;;;12.80;79.70;;;;;;6341491;22;19998;-88
2021/04/13 07:01:18;;;;;;;20.23;15.50;;;12.90;79.60;;;;;;6314482;22;20002;-88
2021/04/13 07:04:02;;;;;;;18.02;13.77;;;13.00;79.40;;;;;;6341291;22;20017;-88
2021/04/13 07:06:42;;;;;;;21.17;14.65;;;13.10;79.30;;;;;;6314117;22;19999;-88
2021/04/13 07:09:22;;;;;;;18.92;13.23;;;13.30;79.10;;;;;;6339106;22;20083;-88
2021/04/13 07:12:03;;;;;;;21.70;13.38;;;13.40;79.00;;;;;;6314676;22;20369;-89
2021/04/13 07:15:22;;;;;;;23.27;16.05;;;13.60;78.90;;;;;;6313563;22;20080;-89
2021/04/13 07:18:12;;;;;;;20.63;15.73;;;13.80;78.20;;;;;;6191562;23;19997;-88
2021/04/13 07:20:49;;;;;;;22.80;15.30;;;13.90;77.30;;;;;;6195211;23;20069;-88
2021/04/13 07:23:31;;;;;;;20.27;14.30;;;13.90;76.90;;;;;;6303551;22;20022;-88
2021/04/13 07:26:22;;;;;;;24.13;16.10;;;14.00;76.40;;;;;;6317199;22;20022;-89
2021/04/13 07:29:03;;;;;;;23.17;15.43;;;14.00;76.00;;;;;;6340833;22;20003;-88
2021/04/13 07:32:02;;;;;;;21.77;14.75;;;13.90;75.70;;;;;;6313359;22;20005;-88
2021/04/13 07:34:29;;;;;;;21.30;14.00;;;13.80;75.50;;;;;;6313059;22;20060;-89
2021/04/13 07:37:20;;;;;;;20.83;15.80;;;13.70;75.50;;;;;;6312391;22;20081;-88
2021/04/13 07:39:50;;;;;;;19.58;14.20;;;13.70;75.70;;;;;;6312169;22;19999;-88
2021/04/13 07:42:26;;;;;;;21.40;15.60;;;13.60;75.70;;;;;;6340310;22;19995;-88
2021/04/13 07:45:08;;;;;;;19.55;13.63;;;13.60;75.90;;;;;;6340468;22;20011;-88
2021/04/13 07:47:58;;;;;;;23.33;15.63;;;13.50;76.00;;;;;;6312483;22;19999;-89
2021/04/13 07:50:42;;;;;;;23.48;14.45;;;13.50;76.00;;;;;;6312808;22;20003;-90
2021/04/13 07:53:28;;;;;;;23.60;15.02;;;13.50;75.90;;;;;;6312651;22;20009;-88
2021/04/13 07:56:05;;;;;;;23.77;15.15;;;13.40;75.80;;;;;;6337787;22;20010;-89
2021/04/13 07:58:54;;;;;;;22.67;15.77;;;13.40;75.90;;;;;;6312348;22;19995;-89
2021/04/13 08:01:21;;;;;;;20.50;14.40;;;13.40;75.90;;;;;;6312997;22;20086;-88
2021/04/13 08:03:47;;;;;;;21.65;14.45;;;13.30;75.80;;;;;;6313024;22;20003;-88
2021/04/13 08:06:28;;;;;;;18.65;13.20;;;13.30;75.80;;;;;;6339155;22;20003;-89
2021/04/13 08:09:16;;;;;;;16.77;13.60;;;13.20;75.80;;;;;;6313994;22;19999;-88
2021/04/13 08:12:01;;;;;;;21.75;14.65;;;13.20;75.80;;;;;;6322732;22;20006;-87
2021/04/13 08:14:32;;;;;;;21.83;13.48;;;13.20;75.80;;;;;;6326192;22;20003;-87
2021/04/13 08:17:28;;;;;;;20.10;14.18;;;13.20;75.90;;;;;;6326383;22;20066;-88
2021/04/13 08:20:06;;;;;;;17.75;12.85;;;13.20;75.80;;;;;;6322968;22;20058;-88
2021/04/13 08:22:53;;;;;;;23.02;14.07;;;13.20;75.70;;;;;;6317512;22;20011;-88
2021/04/13 08:25:50;;;;;;;20.50;13.82;;;13.10;75.50;;;;;;6315847;22;20023;-89
2021/04/13 08:28:22;;;;;;;19.67;13.90;;;13.10;75.40;;;;;;6310695;22;20006;-89
2021/04/13 08:34:26;;;;;;;20.00;13.70;;;13.10;75.50;;;;;;6340526;22;20059;-90
2021/04/13 08:37:17;;;;;;;17.67;14.10;;;13.10;75.30;;;;;;6313186;22;19998;-89
2021/04/13 08:40:10;;;;;;;20.45;14.32;;;13.10;75.30;;;;;;6339866;22;20037;-89
2021/04/13 08:42:59;;;;;;;21.42;13.90;;;13.10;75.20;;;;;;6264059;22;20011;-89
2021/04/13 08:45:37;;;;;;;20.25;14.07;;;13.00;75.50;;;;;;6267833;22;20026;-89
2021/04/13 08:48:17;;;;;;;22.40;14.48;;;12.90;75.50;;;;;;6313114;22;20092;-89
2021/04/13 08:50:52;;;;;;;18.65;12.98;;;12.80;75.70;;;;;;6312980;22;20031;-88
2021/04/13 08:53:31;;;;;;;24.45;14.60;;;12.80;75.90;;;;;;6311866;22;20085;-89
2021/04/13 08:56:26;;;;;;;21.05;14.18;;;12.80;76.20;;;;;;6311468;22;19998;-89
2021/04/13 08:58:54;;;;;;;19.92;14.05;;;12.80;76.70;;;;;;6313089;22;20002;-91
2021/04/13 09:01:19;;;;;;;20.02;14.07;;;12.80;76.80;;;;;;6311241;22;20418;-89
2021/04/13 09:03:45;;;;;;;17.10;13.30;;;12.90;76.90;;;;;;6312011;22;20006;-90
2021/04/13 09:06:20;;;;;;;26.40;14.65;;;13.00;76.70;;;;;;6339791;22;20001;-91
2021/04/13 09:09:53;;;;;;;20.67;15.07;;;13.00;76.80;;;;;;5092267;27;20386;-91
2021/04/13 09:12:24;;;;;;;20.40;12.68;;;13.10;76.10;;;;;;5092773;28;20036;-90
2021/04/13 09:15:20;;;;;;;15.02;12.02;;;13.00;75.90;;;;;;5090977;28;20074;-89
2021/04/13 09:18:12;;;;;;;15.73;12.75;;;13.00;75.80;;;;;;5090607;28;20119;-89
2021/04/13 09:20:47;;;;;;;16.45;11.93;;;13.00;75.90;;;;;;5091922;28;20059;-91
2021/04/13 09:23:41;;;;;;;15.18;12.32;;;13.00;75.80;;;;;;5073767;28;20451;-92
2021/04/13 09:26:45;;;;;;;19.60;12.13;;;13.00;75.80;;;;;;5091202;28;20029;-92
2021/04/13 09:29:29;;;;;;;17.13;12.37;;;13.00;75.70;;;;;;5091003;28;20047;-92
2021/04/13 09:31:57;;;;;;;16.17;11.77;;;12.90;75.70;;;;;;5087308;28;20036;-92
2021/04/13 09:35:16;;;;;;;21.42;13.32;;;12.90;75.90;;;;;;5093659;28;20100;-93
2021/04/13 09:38:20;;;;;;;22.60;14.30;;;12.90;75.90;;;;;;5082536;28;20032;-93
2021/04/13 09:41:01;;;;;;;19.40;13.53;;;12.90;76.00;;;;;;5075118;28;20386;-90
2021/04/13 09:43:42;;;;;;;20.40;14.32;;;12.90;76.10;;;;;;5089557;28;20441;-87
2021/04/13 09:46:17;;;;;;;21.45;15.38;;;12.80;76.20;;;;;;5093094;28;20035;-90
2021/04/13 09:49:13;;;;;;;21.10;14.63;;;12.90;76.40;;;;;;5095171;28;20124;-90
2021/04/13 09:52:14;;;;;;;23.55;15.45;;;12.90;76.30;;;;;;5103251;28;20096;-89
2021/04/13 09:54:47;;;;;;;20.92;14.27;;;12.90;76.40;;;;;;5109506;28;20032;-91
2021/04/13 09:57:31;;;;;;;18.33;13.65;;;13.00;76.30;;;;;;5111602;28;20028;-89
2021/04/13 10:00:27;;;;;;;22.67;14.45;;;13.00;76.30;;;;;;5108939;28;20033;-91
2021/04/13 10:03:10;;;;;;;23.25;14.75;;;13.10;76.30;;;;;;5093287;28;20385;-91
2021/04/13 10:05:42;;;;;;;19.45;13.65;;;13.20;76.10;;;;;;5092117;28;20030;-92
2021/04/13 10:08:28;;;;;;;20.23;15.23;;;13.30;76.10;;;;;;5074541;28;20146;-92
2021/04/13 10:11:09;;;;;;;22.20;15.57;;;13.40;75.70;;;;;;5091687;28;20036;-90
2021/04/13 10:13:59;;;;;;;22.05;14.85;;;13.50;75.50;;;;;;5089969;28;20032;-91
2021/04/13 10:16:50;;;;;;;23.15;15.38;;;13.60;75.30;;;;;;5090159;28;20028;-90
2021/04/13 10:19:28;;;;;;;20.80;15.13;;;13.70;75.40;;;;;;5083738;28;20028;-88
2021/04/13 10:22:11;;;;;;;23.23;15.95;;;13.90;75.10;;;;;;5076360;28;20032;-89
2021/04/13 10:25:05;;;;;;;29.48;17.70;;;14.00;74.90;;;;;;5075835;28;20471;-90
2021/04/13 10:27:50;;;;;;;23.73;15.48;;;14.30;74.50;;;;;;5075757;28;20039;-89
2021/04/13 10:30:46;;;;;;;21.27;15.65;;;14.50;74.00;;;;;;5075527;28;20447;-90
2021/04/13 10:33:56;;;;;;;24.52;16.45;;;14.60;73.20;;;;;;5077207;28;20077;-90
2021/04/13 10:36:46;;;;;;;18.13;14.43;;;14.80;72.40;;;;;;5075907;28;20021;-90
2021/04/13 10:39:24;;;;;;;19.40;13.90;;;14.80;72.10;;;;;;5077188;28;20035;-91
2021/04/13 10:42:17;;;;;;;21.75;15.18;;;14.80;71.90;;;;;;5075626;28;20032;-91
2021/04/13 10:44:57;;;;;;;17.73;13.45;;;14.70;71.70;;;;;;5077971;28;20051;-92
2021/04/13 10:47:29;;;;;;;20.25;13.77;;;14.60;71.60;;;;;;5075915;28;20119;-90
2021/04/13 10:50:16;;;;;;;23.35;15.55;;;14.40;71.60;;;;;;5077524;28;20121;-92
2021/04/13 10:53:35;;;;;;;20.63;14.40;;;14.30;71.70;;;;;;5079191;28;20025;-92
2021/04/13 10:56:42;;;;;;;24.00;14.68;;;14.00;71.90;;;;;;5099896;28;20028;-92
2021/04/13 11:02:56;;;;;;;19.95;14.88;;;13.70;72.50;;;;;;5080748;28;20474;-89
2021/04/13 11:05:38;;;;;;;19.27;14.63;;;13.60;72.70;;;;;;5076050;28;20032;-90
2021/04/13 11:08:35;;;;;;;22.58;14.57;;;13.50;73.30;;;;;;5075901;28;20064;-90
2021/04/13 11:11:46;;;;;;;21.65;17.17;;;13.40;73.60;;;;;;5075519;28;20028;-90
2021/04/13 11:14:34;;;;;;;23.23;17.80;;;13.30;73.60;;;;;;5074304;28;20039;-90
2021/04/13 11:17:05;;;;;;;21.77;16.13;;;13.20;74.00;;;;;;5073705;28;20119;-90
2021/04/13 11:19:54;;;;;;;23.70;17.60;;;13.20;74.20;;;;;;5074236;28;20024;-92
2021/04/13 11:22:47;;;;;;;20.75;15.68;;;13.10;74.50;;;;;;5061852;28;20455;-90
2021/04/13 11:25:41;;;;;;;20.88;15.23;;;12.90;74.60;;;;;;5066028;28;20026;-91
2021/04/13 11:28:30;;;;;;;22.77;14.95;;;12.90;74.90;;;;;;5075687;28;20063;-91
2021/04/13 11:31:54;;;;;;;18.25;13.35;;;12.80;74.80;;;;;;5076372;28;20037;-91
2021/04/13 11:34:35;;;;;;;16.90;13.15;;;12.80;74.90;;;;;;5072556;28;20087;-90
2021/04/13 11:37:35;;;;;;;19.98;14.18;;;12.80;75.10;;;;;;5084542;28;20021;-91
2021/04/13 11:40:19;;;;;;;23.00;15.30;;;12.80;75.20;;;;;;5096648;28;20028;-90
2021/04/13 11:42:58;;;;;;;20.70;14.90;;;12.70;75.10;;;;;;5097436;28;20032;-91
2021/04/13 11:45:48;;;;;;;17.40;13.02;;;12.70;75.20;;;;;;5097473;28;20036;-91
2021/04/13 11:48:19;;;;;;;16.70;12.32;;;12.60;75.30;;;;;;5076461;28;20028;-88
2021/04/13 11:51:17;;;;;;;21.23;14.63;;;12.60;75.80;;;;;;5072574;28;20046;-90
2021/04/13 11:53:48;;;;;;;19.38;12.88;;;12.70;75.50;;;;;;5077775;28;20028;-89
2021/04/13 11:56:23;;;;;;;16.88;12.10;;;12.70;75.50;;;;;;5057450;28;20032;-90
2021/04/13 11:59:20;;;;;;;18.20;13.65;;;12.70;75.50;;;;;;5070893;28;20043;-89
2021/04/13 12:02:26;;;;;;;19.48;13.77;;;12.70;75.60;;;;;;5085101;28;20111;-90
2021/04/13 12:04:54;;;;;;;14.57;10.93;;;12.70;75.60;;;;;;5082021;28;20029;-91
2021/04/13 12:07:45;;;;;;;19.25;15.60;;;12.70;75.70;;;;;;5082127;28;20109;-91
2021/04/13 12:10:33;;;;;;;15.52;12.25;;;12.70;75.80;;;;;;5082856;28;20375;-88
2021/04/13 12:13:07;;;;;;;19.38;13.18;;;12.70;75.70;;;;;;5062673;28;20479;-90
2021/04/13 12:15:53;;;;;;;17.60;12.82;;;12.70;75.70;;;;;;5078392;28;20355;-91
2021/04/13 12:18:41;;;;;;;20.42;12.98;;;12.70;75.80;;;;;;5078884;28;20029;-90
2021/04/13 12:21:22;;;;;;;17.40;13.05;;;12.70;75.70;;;;;;5080583;28;20059;-89
2021/04/13 12:23:54;;;;;;;14.70;10.57;;;12.70;75.70;;;;;;5074999;28;20108;-91
2021/04/13 12:26:40;;;;;;;22.05;13.23;;;12.70;75.80;;;;;;5076469;28;20024;-91
2021/04/13 12:29:40;;;;;;;17.13;12.07;;;12.70;75.80;;;;;;5076318;28;20032;-91
2021/04/13 12:32:26;;;;;;;17.13;13.50;;;12.80;76.10;;;;;;5075459;28;20051;-90
2021/04/13 12:35:04;;;;;;;17.92;13.43;;;12.80;75.90;;;;;;5056008;28;20396;-89
2021/04/13 12:37:54;;;;;;;15.32;11.75;;;12.80;75.90;;;;;;5072618;28;20115;-91
2021/04/13 12:40:28;;;;;;;17.67;12.50;;;12.90;75.90;;;;;;5077227;28;20029;-91
2021/04/13 12:43:16;;;;;;;;;;;12.90;75.80;;;;;;5074670;28;20016;-90
2021/04/13 12:45:52;;;;;;;15.88;11.82;;;12.90;76.00;;;;;;5073194;28;19912;-91
2021/04/13 12:48:24;;;;;;;17.63;13.35;;;12.90;75.50;;;;;;5076290;28;20135;-90
2021/04/13 12:51:02;;;;;;;17.67;13.35;;;12.90;75.50;;;;;;5074897;28;20121;-90
2021/04/13 12:53:28;;;;;;;15.60;12.35;;;12.90;75.50;;;;;;5073958;28;20486;-90
2021/04/13 12:56:05;;;;;;;17.25;12.45;;;12.90;75.50;;;;;;5073390;28;20048;-90
2021/04/13 12:58:37;;;;;;;16.95;12.98;;;13.00;75.60;;;;;;5074276;28;20042;-90
2021/04/13 13:01:03;;;;;;;18.73;13.85;;;13.00;75.80;;;;;;5055766;28;20025;-90
2021/04/13 13:03:38;;;;;;;19.35;13.05;;;13.00;75.90;;;;;;5055165;28;20095;-89
2021/04/13 13:06:15;;;;;;;16.08;10.73;;;13.00;75.80;;;;;;5055516;28;20059;-90
2021/04/13 13:08:43;;;;;;;15.90;11.80;;;13.10;76.00;;;;;;5055192;28;20140;-90
2021/04/13 13:11:17;;;;;;;18.50;13.10;;;13.30;76.90;;;;;;5054599;28;20541;-88
2021/04/13 13:13:49;;;;;;;17.25;10.80;;;13.70;77.70;;;;;;5053663;28;20033;-89
2021/04/13 13:16:21;;;;;;;17.23;11.90;;;14.30;77.30;;;;;;5068483;28;20456;-89
2021/04/13 13:18:50;;;;;;;15.27;11.90;;;14.80;76.50;;;;;;5074762;28;20036;-91
2021/04/13 13:21:19;;;;;;;15.23;10.70;;;15.30;75.20;;;;;;5074916;28;20078;-90
2021/04/13 13:23:48;;;;;;;14.15;10.90;;;15.70;73.60;;;;;;5074399;28;20025;-91
2021/04/13 13:26:24;;;;;;;20.85;12.68;;;15.90;71.90;;;;;;5074383;28;20040;-90
2021/04/13 13:28:49;;;;;;;17.08;11.45;;;16.10;70.50;;;;;;5081083;28;20036;-88
2021/04/13 13:31:34;;;;;;;16.23;12.27;;;16.10;69.60;;;;;;5088761;28;20039;-89
2021/04/13 13:34:20;;;;;;;16.70;12.60;;;16.10;69.30;;;;;;5088663;28;20021;-91